Time;durP1;ratioP1;P1;durP2;ratioP2;P2;SDS_P1;SDS_P2;PMS_P1;PMS_P2;Temp;Humidity;BMP_temperature;BMP_pressure;BME280_temperature;BME280_humidity;BME280_pressure;Samples;Min_cycle;Max_cycle;Signal;HPM_P1;HPM_P2
2021/08/26 03:47:22;;;;;;;13.38;4.70;;;;;;;;;;4991799;23;20123;-81
2021/08/26 03:49:47;;;;;;;10.03;4.40;;;;;;;;;;4863594;29;20489;-82
2021/08/26 03:52:12;;;;;;;10.77;5.53;;;;;;;;;;4833350;29;20124;-81
2021/08/26 03:54:38;;;;;;;12.57;4.70;;;;;;;;;;4833082;29;20039;-81
2021/08/26 03:57:03;;;;;;;10.53;5.00;;;;;;;;;;4843594;29;20112;-81
2021/08/26 03:59:28;;;;;;;7.97;4.13;;;;;;;;;;4849076;29;20043;-82
2021/08/26 04:01:54;;;;;;;10.97;4.73;;;;;;;;;;4848512;29;20123;-82
2021/08/26 04:04:19;;;;;;;8.83;4.50;;;;;;;;;;4848581;29;20151;-82
2021/08/26 04:06:44;;;;;;;9.03;4.57;;;;;;;;;;4848671;29;20125;-82
2021/08/26 04:09:10;;;;;;;11.53;5.00;;;;;;;;;;4848498;29;20108;-82
2021/08/26 04:11:35;;;;;;;9.50;4.67;;;;;;;;;;4848098;29;20061;-82
2021/08/26 04:14:00;;;;;;;8.60;4.63;;;;;;;;;;4848491;29;20116;-82
2021/08/26 04:16:26;;;;;;;11.63;4.80;;;;;;;;;;4847701;29;20581;-82
2021/08/26 04:18:51;;;;;;;10.97;4.30;;;;;;;;;;4848032;29;20060;-82
2021/08/26 04:21:16;;;;;;;11.50;4.67;;;;;;;;;;4848047;29;20060;-82
2021/08/26 04:23:42;;;;;;;10.03;4.93;;;;;;;;;;4848327;29;20129;-82
2021/08/26 04:26:07;;;;;;;9.47;4.27;;;;;;;;;;4848018;29;20124;-83
2021/08/26 04:28:32;;;;;;;12.93;4.70;;;;;;;;;;4848253;29;20119;-82
2021/08/26 04:30:58;;;;;;;9.13;4.57;;;;;;;;;;4847873;29;20439;-81
2021/08/26 04:33:23;;;;;;;9.77;4.63;;;;;;;;;;4849164;29;20115;-88
2021/08/26 04:35:48;;;;;;;12.47;4.60;;;;;;;;;;4863729;29;20036;-84
2021/08/26 04:38:14;;;;;;;12.33;4.70;;;;;;;;;;4848263;29;20107;-84
2021/08/26 04:40:39;;;;;;;12.17;5.00;;;;;;;;;;4848268;29;20123;-84
2021/08/26 04:43:05;;;;;;;11.47;4.83;;;;;;;;;;4847868;29;20157;-84
2021/08/26 04:45:30;;;;;;;9.07;4.17;;;;;;;;;;4848054;29;20033;-80
2021/08/26 04:47:55;;;;;;;9.90;5.10;;;;;;;;;;4847828;29;20466;-80
2021/08/26 04:50:21;;;;;;;10.87;5.20;;;;;;;;;;4847599;29;20120;-80
2021/08/26 04:52:46;;;;;;;10.27;4.83;;;;;;;;;;4847445;29;20088;-80
2021/08/26 04:55:11;;;;;;;11.90;5.00;;;;;;;;;;4847554;29;20116;-80
2021/08/26 04:57:37;;;;;;;10.87;5.00;;;;;;;;;;4847709;29;20128;-80
2021/08/26 05:00:04;;;;;;;10.47;4.70;;;;;;;;;;4847808;29;20124;-81
2021/08/26 05:02:30;;;;;;;10.23;4.88;;;;;;;;;;4862623;29;20116;-80
2021/08/26 05:04:55;;;;;;;10.23;4.90;;;;;;;;;;4847506;29;20247;-80
2021/08/26 05:07:21;;;;;;;11.37;5.13;;;;;;;;;;4847372;29;20124;-80
2021/08/26 05:09:47;;;;;;;10.90;5.17;;;;;;;;;;4862376;29;20439;-80
2021/08/26 05:12:12;;;;;;;11.45;4.90;;;;;;;;;;4848235;29;20404;-81
2021/08/26 05:14:38;;;;;;;11.67;4.97;;;;;;;;;;4846732;29;20029;-80
2021/08/26 05:17:03;;;;;;;13.60;5.37;;;;;;;;;;4847320;29;20224;-81
2021/08/26 05:19:28;;;;;;;10.33;4.90;;;;;;;;;;4847215;29;20120;-82
2021/08/26 05:21:54;;;;;;;12.63;5.47;;;;;;;;;;4846849;29;20103;-82
2021/08/26 05:24:19;;;;;;;9.97;5.03;;;;;;;;;;4848751;29;20060;-83
2021/08/26 05:26:44;;;;;;;10.60;4.90;;;;;;;;;;4848006;29;20475;-82
2021/08/26 05:29:10;;;;;;;11.10;5.27;;;;;;;;;;4847211;29;20040;-83
2021/08/26 05:31:35;;;;;;;12.47;5.20;;;;;;;;;;4846892;29;20111;-82
2021/08/26 05:34:00;;;;;;;12.87;5.40;;;;;;;;;;4851560;29;20052;-82
2021/08/26 05:36:26;;;;;;;13.93;5.67;;;;;;;;;;4847013;29;20107;-83
2021/08/26 05:38:51;;;;;;;11.13;5.10;;;;;;;;;;4854061;29;20115;-83
2021/08/26 05:41:16;;;;;;;10.00;5.03;;;;;;;;;;4846720;29;20104;-84
2021/08/26 05:43:47;;;;;;;12.63;5.33;;;;;;;;;;4832576;29;20478;-84
2021/08/26 05:46:12;;;;;;;11.73;4.90;;;;;;;;;;4852912;29;20566;-84
2021/08/26 05:48:38;;;;;;;11.00;5.43;;;;;;;;;;4827370;29;20116;-85
2021/08/26 05:51:03;;;;;;;16.43;6.07;;;;;;;;;;4842182;29;20497;-82
2021/08/26 05:53:29;;;;;;;14.27;5.60;;;;;;;;;;4846809;29;20390;-84
2021/08/26 05:55:54;;;;;;;10.97;5.40;;;;;;;;;;4860587;29;20037;-85
2021/08/26 05:58:20;;;;;;;12.23;5.70;;;;;;;;;;4844017;29;20039;-84
2021/08/26 06:00:50;;;;;;;11.13;5.83;;;;;;;;;;4828079;29;20045;-83
2021/08/26 06:03:16;;;;;;;14.70;5.93;;;;;;;;;;4861975;29;20029;-83
2021/08/26 06:05:42;;;;;;;12.83;6.67;;;;;;;;;;4813806;29;20509;-85
2021/08/26 06:08:07;;;;;;;13.57;6.50;;;;;;;;;;4837422;29;20451;-85
2021/08/26 06:10:32;;;;;;;11.70;6.13;;;;;;;;;;4854617;29;20289;-84
2021/08/26 06:12:58;;;;;;;14.77;6.93;;;;;;;;;;4842422;29;20116;-84
2021/08/26 06:15:23;;;;;;;14.17;6.90;;;;;;;;;;4855245;29;20728;-84
2021/08/26 06:17:48;;;;;;;15.17;6.73;;;;;;;;;;4828435;29;20033;-84
2021/08/26 06:20:14;;;;;;;14.33;6.47;;;;;;;;;;4827140;29;20125;-84
2021/08/26 06:22:40;;;;;;;13.73;6.03;;;;;;;;;;4829259;29;20029;-84
2021/08/26 06:25:06;;;;;;;11.53;6.03;;;;;;;;;;4823997;29;20025;-85
2021/08/26 06:27:31;;;;;;;12.60;6.10;;;;;;;;;;4841032;29;20036;-84
2021/08/26 06:29:57;;;;;;;14.20;6.73;;;;;;;;;;4844969;29;20040;-84
2021/08/26 06:32:22;;;;;;;13.87;6.80;;;;;;;;;;4845553;29;20033;-84
2021/08/26 06:34:47;;;;;;;16.60;6.87;;;;;;;;;;4846230;29;20128;-84
2021/08/26 06:37:13;;;;;;;12.60;6.30;;;;;;;;;;4835588;29;20032;-83
2021/08/26 06:39:38;;;;;;;17.33;6.97;;;;;;;;;;4836380;29;20654;-84
2021/08/26 06:42:03;;;;;;;14.87;7.10;;;;;;;;;;4839628;29;20021;-84
2021/08/26 06:44:29;;;;;;;15.73;7.47;;;;;;;;;;4843028;29;20025;-84
2021/08/26 06:46:54;;;;;;;16.03;7.23;;;;;;;;;;4827482;29;20036;-85
2021/08/26 06:49:22;;;;;;;14.27;6.80;;;;;;;;;;4842566;29;20557;-84
2021/08/26 06:51:47;;;;;;;15.73;7.15;;;;;;;;;;4848445;29;20032;-84
2021/08/26 06:54:13;;;;;;;18.07;7.43;;;;;;;;;;4845703;29;20123;-84
2021/08/26 06:56:38;;;;;;;17.10;7.50;;;;;;;;;;4834638;29;20128;-84
2021/08/26 06:59:03;;;;;;;21.03;7.97;;;;;;;;;;4845358;29;20478;-85
2021/08/26 07:01:29;;;;;;;14.57;7.90;;;;;;;;;;4844831;29;20027;-84
2021/08/26 07:03:54;;;;;;;13.47;7.73;;;;;;;;;;4845532;29;20035;-84
2021/08/26 07:06:19;;;;;;;15.87;7.60;;;;;;;;;;4842627;29;20145;-85
2021/08/26 07:08:45;;;;;;;15.67;7.53;;;;;;;;;;4827408;29;20053;-84
2021/08/26 07:11:10;;;;;;;15.23;7.60;;;;;;;;;;4830121;29;20029;-85
2021/08/26 07:13:35;;;;;;;14.70;8.23;;;;;;;;;;4848835;29;20104;-84
2021/08/26 07:16:01;;;;;;;16.37;8.47;;;;;;;;;;4839125;29;20021;-84
2021/08/26 07:18:28;;;;;;;16.23;8.30;;;;;;;;;;4847615;29;20025;-83
2021/08/26 07:20:57;;;;;;;17.38;8.30;;;;;;;;;;4842676;29;20037;-85
2021/08/26 07:23:55;;;;;;;15.55;7.95;;;;;;;;;;4856800;29;20026;-85
2021/08/26 07:26:51;;;;;;;17.48;8.13;;;;;;;;;;4871733;29;20065;-86
2021/08/26 07:56:11;;;;;;;18.33;8.82;;;;;;;;;;4880428;29;20079;-84
2021/08/26 07:58:37;;;;;;;17.50;9.50;;;;;;;;;;4848467;29;20024;-83
2021/08/26 08:01:03;;;;;;;18.30;9.52;;;;;;;;;;4848970;29;20036;-84
2021/08/26 08:03:28;;;;;;;22.60;10.13;;;;;;;;;;4855709;29;20025;-84
2021/08/26 08:05:53;;;;;;;18.57;9.83;;;;;;;;;;4848413;29;20073;-84
2021/08/26 08:08:19;;;;;;;19.80;9.80;;;;;;;;;;4848700;29;20029;-83
2021/08/26 08:10:44;;;;;;;18.90;10.47;;;;;;;;;;4848533;29;20089;-84
2021/08/26 08:13:10;;;;;;;20.27;9.87;;;;;;;;;;4848114;29;20052;-84
2021/08/26 08:15:36;;;;;;;18.47;9.50;;;;;;;;;;4848545;29;20029;-83
2021/08/26 08:18:02;;;;;;;21.70;9.95;;;;;;;;;;4848589;29;20035;-84
2021/08/26 08:20:27;;;;;;;17.27;9.47;;;;;;;;;;4848087;29;20450;-83
2021/08/26 08:22:52;;;;;;;21.93;10.00;;;;;;;;;;4847971;29;20124;-84
2021/08/26 08:25:18;;;;;;;21.83;10.47;;;;;;;;;;4858897;29;20061;-84
2021/08/26 08:27:43;;;;;;;20.13;9.33;;;;;;;;;;4847873;29;20045;-83
2021/08/26 08:30:09;;;;;;;17.27;9.57;;;;;;;;;;4863462;29;20112;-82
2021/08/26 08:32:34;;;;;;;16.33;9.37;;;;;;;;;;4847840;29;20390;-84
2021/08/26 08:34:59;;;;;;;17.60;8.50;;;;;;;;;;4848360;29;20041;-82
2021/08/26 08:37:25;;;;;;;16.93;8.10;;;;;;;;;;4847908;29;20487;-84
2021/08/26 08:39:50;;;;;;;15.37;7.83;;;;;;;;;;4863455;29;20168;-84
2021/08/26 08:42:15;;;;;;;15.27;8.27;;;;;;;;;;4844470;29;20120;-84
2021/08/26 08:44:41;;;;;;;15.80;8.23;;;;;;;;;;4853622;29;20033;-84
2021/08/26 08:47:06;;;;;;;22.17;10.07;;;;;;;;;;4848095;29;20084;-83
2021/08/26 08:49:33;;;;;;;26.50;11.57;;;;;;;;;;4851454;29;20048;-84
2021/08/26 08:51:58;;;;;;;;;;;;;;;;;;4848151;29;20040;-82
2021/08/26 08:54:24;;;;;;;44.70;19.97;;;;;;;;;;4863215;29;19912;-84
2021/08/26 08:56:49;;;;;;;21.37;11.47;;;;;;;;;;4847689;29;20071;-83
2021/08/26 08:59:15;;;;;;;12.43;7.47;;;;;;;;;;4832425;29;20039;-82
2021/08/26 09:01:48;;;;;;;12.43;6.93;;;;;;;;;;4847372;29;20065;-84
2021/08/26 09:04:13;;;;;;;11.10;6.15;;;;;;;;;;4863045;29;20501;-84
2021/08/26 09:06:40;;;;;;;12.07;6.10;;;;;;;;;;4847063;29;20060;-84
2021/08/26 09:09:05;;;;;;;7.00;4.20;;;;;;;;;;4862790;29;20028;-84
2021/08/26 09:11:31;;;;;;;8.87;4.67;;;;;;;;;;4847003;29;20040;-83
2021/08/26 09:14:07;;;;;;;8.70;4.20;;;;;;;;;;4847614;29;20114;-84
2021/08/26 09:16:37;;;;;;;6.97;3.53;;;;;;;;;;4847425;29;20062;-84
2021/08/26 09:19:20;;;;;;;5.32;3.20;;;;;;;;;;4862664;29;20029;-85
2021/08/26 09:21:46;;;;;;;5.85;3.20;;;;;;;;;;4862493;29;20097;-83
2021/08/26 09:24:12;;;;;;;5.30;2.85;;;;;;;;;;4862591;29;20116;-84
2021/08/26 09:26:39;;;;;;;5.17;3.00;;;;;;;;;;4846995;29;20402;-84
2021/08/26 09:29:08;;;;;;;4.55;2.40;;;;;;;;;;4846888;29;20021;-85
2021/08/26 09:31:33;;;;;;;6.40;3.00;;;;;;;;;;4862835;29;20030;-85
2021/08/26 09:34:09;;;;;;;3.80;2.10;;;;;;;;;;4862655;29;20401;-84
2021/08/26 09:36:55;;;;;;;3.58;1.85;;;;;;;;;;4848108;29;20040;-84
2021/08/26 09:39:22;;;;;;;3.40;1.73;;;;;;;;;;4849052;29;20531;-84
2021/08/26 09:41:53;;;;;;;3.50;1.90;;;;;;;;;;4843319;29;20478;-84
2021/08/26 09:44:27;;;;;;;3.25;1.80;;;;;;;;;;4828717;29;20135;-86
2021/08/26 09:46:53;;;;;;;3.65;1.90;;;;;;;;;;4830615;29;20029;-86
2021/08/26 10:05:02;;;;;;;3.72;2.10;;;;;;;;;;4895544;29;20048;-88
2021/08/26 10:07:52;;;;;;;3.92;2.00;;;;;;;;;;4880207;29;20033;-88
2021/08/26 10:13:27;;;;;;;4.15;2.08;;;;;;;;;;4834335;29;20053;-90
2021/08/26 10:16:27;;;;;;;3.53;1.95;;;;;;;;;;4861679;29;20056;-89
2021/08/26 10:19:33;;;;;;;3.20;2.10;;;;;;;;;;4874473;29;20045;-89
2021/08/26 10:21:59;;;;;;;6.75;1.67;;;;;;;;;;4890105;29;20056;-88
2021/08/26 10:24:24;;;;;;;3.57;1.90;;;;;;;;;;4864231;29;20111;-89
2021/08/26 10:27:19;;;;;;;3.47;1.70;;;;;;;;;;4856247;29;20119;-89
2021/08/26 10:29:45;;;;;;;2.90;1.63;;;;;;;;;;4853289;29;20081;-88
2021/08/26 10:32:21;;;;;;;3.47;1.90;;;;;;;;;;4849837;29;20032;-89
2021/08/26 10:35:16;;;;;;;2.92;1.90;;;;;;;;;;4861856;29;20044;-88
2021/08/26 10:37:46;;;;;;;2.97;1.80;;;;;;;;;;4855495;29;20040;-89
2021/08/26 10:40:36;;;;;;;4.03;2.10;;;;;;;;;;4863434;29;20032;-89
2021/08/26 10:43:02;;;;;;;2.85;1.80;;;;;;;;;;4862950;29;20043;-89
2021/08/26 10:45:30;;;;;;;4.13;2.03;;;;;;;;;;4863366;29;20029;-89
2021/08/26 10:48:02;;;;;;;3.03;1.80;;;;;;;;;;4849520;29;21390;-89
2021/08/26 10:50:28;;;;;;;6.10;1.90;;;;;;;;;;4896652;29;20115;-89
2021/08/26 10:52:55;;;;;;;2.92;1.45;;;;;;;;;;4878257;29;20029;-89
2021/08/26 10:55:33;;;;;;;3.45;2.08;;;;;;;;;;4864085;29;20043;-89
2021/08/26 10:58:34;;;;;;;4.18;2.08;;;;;;;;;;4848645;29;20165;-89
2021/08/26 11:01:00;;;;;;;3.00;1.83;;;;;;;;;;4790157;29;20118;-88
2021/08/26 11:03:31;;;;;;;;;;;;;;;;;;4849391;29;20064;-89
2021/08/26 11:05:57;;;;;;;3.65;2.03;;;;;;;;;;4895394;29;20007;-90
2021/08/26 11:08:29;;;;;;;3.27;1.97;;;;;;;;;;4863951;29;20123;-90
2021/08/26 11:10:55;;;;;;;4.07;1.90;;;;;;;;;;4862437;29;20039;-89
2021/08/26 11:13:32;;;;;;;4.00;2.07;;;;;;;;;;4848029;29;20024;-89
2021/08/26 11:16:17;;;;;;;4.45;2.15;;;;;;;;;;4871600;29;20280;-89
2021/08/26 11:18:42;;;;;;;2.97;1.80;;;;;;;;;;4875974;29;20048;-88
2021/08/26 11:21:07;;;;;;;3.93;2.07;;;;;;;;;;4845742;29;20474;-90
2021/08/26 11:23:43;;;;;;;3.20;1.93;;;;;;;;;;4837104;29;20103;-89
2021/08/26 11:26:47;;;;;;;3.80;1.90;;;;;;;;;;4866772;29;20028;-89
2021/08/26 11:29:34;;;;;;;5.25;1.88;;;;;;;;;;4883162;29;20300;-87
2021/08/26 11:32:00;;;;;;;3.55;1.90;;;;;;;;;;4855550;29;20028;-89
2021/08/26 11:34:32;;;;;;;;;;;;;;;;;;4866400;29;20040;-89
2021/08/26 11:36:57;;;;;;;3.53;1.85;;;;;;;;;;4894894;29;19943;-89
2021/08/26 11:39:23;;;;;;;3.73;1.93;;;;;;;;;;4863839;29;20044;-89
2021/08/26 11:41:48;;;;;;;3.73;2.30;;;;;;;;;;4849902;29;20119;-89
2021/08/26 11:44:14;;;;;;;4.07;1.63;;;;;;;;;;4862266;29;20040;-89
2021/08/26 11:46:41;;;;;;;3.63;1.85;;;;;;;;;;4851924;29;20096;-89
2021/08/26 11:49:06;;;;;;;3.28;1.58;;;;;;;;;;4848070;29;20056;-89
2021/08/26 11:51:32;;;;;;;4.00;1.53;;;;;;;;;;4859735;29;20133;-89
2021/08/26 11:54:11;;;;;;;2.67;1.50;;;;;;;;;;4848820;29;20058;-88
2021/08/26 11:56:54;;;;;;;2.53;1.35;;;;;;;;;;4880596;29;20122;-90
2021/08/26 11:59:26;;;;;;;4.35;1.73;;;;;;;;;;4852219;29;20028;-90
2021/08/26 12:02:14;;;;;;;2.58;1.55;;;;;;;;;;4864740;29;20032;-87
2021/08/26 12:04:40;;;;;;;3.47;1.80;;;;;;;;;;4882537;29;20076;-87
2021/08/26 12:07:05;;;;;;;3.63;1.77;;;;;;;;;;4848507;29;20446;-89
2021/08/26 12:09:30;;;;;;;3.43;2.00;;;;;;;;;;4851596;29;20489;-89
2021/08/26 12:11:56;;;;;;;3.63;1.73;;;;;;;;;;4839698;29;20127;-89
2021/08/26 12:14:21;;;;;;;4.20;2.00;;;;;;;;;;4861417;29;20027;-90
2021/08/26 12:16:46;;;;;;;4.63;2.00;;;;;;;;;;4848074;29;20401;-90
2021/08/26 12:19:14;;;;;;;3.80;1.70;;;;;;;;;;4862954;29;20033;-89
2021/08/26 12:21:39;;;;;;;3.00;1.60;;;;;;;;;;4845899;29;20021;-89
2021/08/26 12:24:05;;;;;;;2.20;1.30;;;;;;;;;;4842937;29;20039;-89
2021/08/26 12:26:35;;;;;;;3.03;1.73;;;;;;;;;;4851523;29;20600;-89
2021/08/26 12:29:00;;;;;;;3.35;1.70;;;;;;;;;;4857768;29;20112;-90
2021/08/26 12:31:26;;;;;;;6.60;1.57;;;;;;;;;;4849503;29;20031;-89
2021/08/26 12:34:02;;;;;;;3.75;2.00;;;;;;;;;;4859528;29;20369;-87
2021/08/26 12:36:28;;;;;;;2.75;1.67;;;;;;;;;;4858139;29;20119;-87
2021/08/26 12:38:54;;;;;;;3.35;1.77;;;;;;;;;;4851476;29;20027;-87
2021/08/26 12:41:22;;;;;;;4.78;1.70;;;;;;;;;;4854139;29;20032;-87
2021/08/26 12:43:53;;;;;;;3.63;1.70;;;;;;;;;;4851534;29;20112;-87
2021/08/26 12:46:29;;;;;;;3.28;1.80;;;;;;;;;;4851961;29;20024;-87
2021/08/26 12:49:05;;;;;;;4.20;2.10;;;;;;;;;;4851252;29;20036;-87
2021/08/26 12:52:00;;;;;;;2.50;1.60;;;;;;;;;;4865093;29;20292;-87
2021/08/26 12:54:25;;;;;;;3.58;2.05;;;;;;;;;;4852200;29;20298;-88
2021/08/26 12:56:56;;;;;;;5.00;1.77;;;;;;;;;;4847437;29;20542;-87
2021/08/26 12:59:36;;;;;;;4.03;1.58;;;;;;;;;;4839066;29;20076;-85
2021/08/26 13:02:06;;;;;;;4.43;2.05;;;;;;;;;;4867040;29;20028;-87
2021/08/26 13:04:31;;;;;;;4.32;1.83;;;;;;;;;;4866578;29;20044;-87
2021/08/26 13:06:56;;;;;;;3.87;1.73;;;;;;;;;;4866084;29;20027;-87
2021/08/26 13:09:36;;;;;;;3.53;1.50;;;;;;;;;;4866542;29;20684;-86
2021/08/26 13:12:09;;;;;;;4.20;1.60;;;;;;;;;;4865129;29;20020;-88
2021/08/26 13:14:35;;;;;;;3.75;1.40;;;;;;;;;;4850297;29;20032;-86
2021/08/26 13:17:01;;;;;;;3.17;1.60;;;;;;;;;;4880298;29;20025;-88
2021/08/26 13:19:26;;;;;;;3.13;1.42;;;;;;;;;;4862257;29;20506;-86
2021/08/26 13:21:52;;;;;;;4.93;1.60;;;;;;;;;;4846908;29;20379;-87
2021/08/26 13:24:17;;;;;;;3.23;1.67;;;;;;;;;;4857490;29;20024;-88
2021/08/26 13:26:43;;;;;;;4.27;1.70;;;;;;;;;;4864759;29;20059;-86
2021/08/26 13:29:08;;;;;;;2.40;1.50;;;;;;;;;;4865232;29;20088;-88
2021/08/26 13:31:34;;;;;;;3.47;1.83;;;;;;;;;;4864677;29;20123;-88
2021/08/26 13:34:01;;;;;;;2.93;1.70;;;;;;;;;;4863516;29;20052;-84
2021/08/26 13:36:26;;;;;;;3.15;1.77;;;;;;;;;;4862679;29;20029;-88
2021/08/26 13:38:52;;;;;;;4.90;1.83;;;;;;;;;;4849389;29;20024;-87
2021/08/26 13:41:17;;;;;;;3.47;1.80;;;;;;;;;;4847803;29;20032;-86
2021/08/26 13:43:43;;;;;;;4.47;1.90;;;;;;;;;;4862292;29;20032;-88
2021/08/26 13:46:09;;;;;;;3.80;1.95;;;;;;;;;;4849826;29;20031;-88
2021/08/26 13:48:34;;;;;;;4.03;2.00;;;;;;;;;;4850109;29;20089;-87
2021/08/26 13:51:00;;;;;;;4.23;1.80;;;;;;;;;;4864244;29;20025;-87
2021/08/26 13:53:25;;;;;;;3.63;1.70;;;;;;;;;;4865369;29;20099;-88
2021/08/26 13:55:50;;;;;;;5.10;2.37;;;;;;;;;;4859889;29;20033;-87
2021/08/26 13:58:16;;;;;;;4.33;2.27;;;;;;;;;;4843600;29;20025;-86
2021/08/26 14:00:41;;;;;;;4.20;2.03;;;;;;;;;;4852709;29;20115;-88
2021/08/26 14:03:06;;;;;;;4.70;2.43;;;;;;;;;;4831139;29;20633;-87
2021/08/26 14:05:32;;;;;;;4.57;1.83;;;;;;;;;;4856063;29;20025;-87
2021/08/26 14:07:58;;;;;;;4.17;2.03;;;;;;;;;;4864815;29;20020;-88
2021/08/26 14:10:23;;;;;;;4.53;1.70;;;;;;;;;;4849190;29;20021;-87
2021/08/26 14:12:49;;;;;;;4.10;1.63;;;;;;;;;;4848300;29;20036;-91
2021/08/26 14:15:14;;;;;;;5.75;2.00;;;;;;;;;;4863733;29;20404;-88
2021/08/26 14:17:40;;;;;;;3.40;1.90;;;;;;;;;;4846627;29;20033;-88
2021/08/26 14:20:06;;;;;;;4.93;1.93;;;;;;;;;;4861099;29;20025;-88
2021/08/26 14:22:31;;;;;;;4.38;1.90;;;;;;;;;;4864103;29;20036;-87
2021/08/26 14:24:57;;;;;;;3.07;1.70;;;;;;;;;;4848984;29;20580;-88
2021/08/26 14:27:22;;;;;;;4.73;1.60;;;;;;;;;;4849302;29;20033;-88
2021/08/26 14:30:20;;;;;;;4.50;1.97;;;;;;;;;;4861046;29;20490;-87
2021/08/26 14:33:00;;;;;;;;;;;;;;;;;;4876772;29;20069;-88
2021/08/26 14:35:51;;;;;;;4.55;1.70;;;;;;;;;;4860800;29;19911;-88
2021/08/26 14:38:27;;;;;;;4.65;1.77;;;;;;;;;;4861398;29;20040;-88
2021/08/26 14:40:52;;;;;;;3.63;1.70;;;;;;;;;;4861495;29;20142;-88
2021/08/26 14:43:17;;;;;;;3.03;1.60;;;;;;;;;;4860894;29;20037;-87
2021/08/26 14:45:43;;;;;;;3.33;1.80;;;;;;;;;;4860763;29;20137;-86
2021/08/26 14:48:10;;;;;;;3.80;1.60;;;;;;;;;;4863546;29;20028;-89
2021/08/26 14:50:35;;;;;;;3.92;1.80;;;;;;;;;;4864585;29;20068;-87
2021/08/26 14:53:02;;;;;;;4.50;1.90;;;;;;;;;;4864015;29;20037;-89
2021/08/26 14:55:27;;;;;;;;;;;;;;;;;;4846771;29;20053;-88
2021/08/26 14:57:53;;;;;;;3.37;1.80;;;;;;;;;;4861444;29;19962;-88
2021/08/26 15:00:18;;;;;;;4.27;1.90;;;;;;;;;;4848762;29;20278;-86
2021/08/26 15:02:43;;;;;;;3.97;1.70;;;;;;;;;;4834049;29;20057;-88
2021/08/26 15:05:09;;;;;;;4.73;2.00;;;;;;;;;;4849687;29;20024;-88
2021/08/26 15:07:35;;;;;;;4.13;1.88;;;;;;;;;;4865135;29;20029;-88
2021/08/26 15:10:01;;;;;;;3.37;1.80;;;;;;;;;;4858972;29;20046;-88
2021/08/26 15:12:30;;;;;;;4.37;2.10;;;;;;;;;;4867710;29;20120;-88
2021/08/26 15:14:55;;;;;;;4.18;2.00;;;;;;;;;;4864030;29;20280;-86
2021/08/26 15:17:21;;;;;;;6.80;2.20;;;;;;;;;;4864477;29;20029;-86
2021/08/26 15:19:47;;;;;;;3.83;2.07;;;;;;;;;;4861341;29;20055;-88
2021/08/26 15:22:13;;;;;;;4.13;1.95;;;;;;;;;;4867131;29;20024;-89
2021/08/26 15:24:38;;;;;;;4.10;1.90;;;;;;;;;;4867054;29;20034;-88
2021/08/26 15:27:04;;;;;;;4.40;2.00;;;;;;;;;;4867258;29;20482;-88
2021/08/26 15:29:29;;;;;;;3.70;1.90;;;;;;;;;;4867300;29;20024;-86
2021/08/26 15:31:56;;;;;;;5.17;1.80;;;;;;;;;;4880857;29;20133;-87
2021/08/26 15:34:21;;;;;;;5.75;2.08;;;;;;;;;;4867295;29;20037;-87
2021/08/26 15:36:47;;;;;;;3.13;1.97;;;;;;;;;;4853054;29;20127;-88
2021/08/26 15:39:12;;;;;;;4.70;1.77;;;;;;;;;;4867224;29;20031;-88
2021/08/26 15:41:37;;;;;;;3.80;1.90;;;;;;;;;;4863909;29;20031;-87
2021/08/26 15:44:06;;;;;;;4.17;1.93;;;;;;;;;;4833326;29;20462;-87
2021/08/26 15:46:33;;;;;;;3.95;1.80;;;;;;;;;;4849297;29;20037;-88
2021/08/26 15:48:58;;;;;;;3.92;1.83;;;;;;;;;;4865799;29;20037;-87
2021/08/26 15:51:29;;;;;;;4.70;1.60;;;;;;;;;;4851159;29;20524;-88
2021/08/26 15:54:02;;;;;;;4.75;2.00;;;;;;;;;;4852913;29;20092;-87
2021/08/26 15:56:33;;;;;;;3.47;1.60;;;;;;;;;;4868343;29;20394;-88
2021/08/26 17:34:40;;;;;;;4.95;1.60;;;;;;;;;;4932349;29;20048;-82
2021/08/26 17:37:06;;;;;;;3.88;1.73;;;;;;;;;;4888073;29;20024;-81
2021/08/26 17:39:31;;;;;;;5.07;2.00;;;;;;;;;;4899719;29;20020;-81
2021/08/26 17:41:57;;;;;;;4.93;2.00;;;;;;;;;;4884059;29;20285;-81
2021/08/26 17:44:22;;;;;;;5.37;1.87;;;;;;;;;;4883753;29;20032;-80
2021/08/26 17:46:48;;;;;;;4.80;1.83;;;;;;;;;;4891546;29;20038;-81
2021/08/26 17:49:13;;;;;;;3.73;2.17;;;;;;;;;;4902756;29;20028;-80
2021/08/26 17:51:38;;;;;;;4.63;1.80;;;;;;;;;;4902525;29;20167;-81
2021/08/26 17:54:04;;;;;;;4.67;1.90;;;;;;;;;;4886736;29;20571;-80
2021/08/26 17:56:29;;;;;;;4.33;1.80;;;;;;;;;;4902826;29;20028;-81
2021/08/26 17:58:54;;;;;;;3.27;1.83;;;;;;;;;;4887063;29;20028;-81
2021/08/26 18:01:20;;;;;;;4.60;1.70;;;;;;;;;;4885931;29;20106;-80
2021/08/26 18:03:45;;;;;;;5.23;2.27;;;;;;;;;;4900938;29;20076;-81
2021/08/26 18:06:11;;;;;;;6.00;2.27;;;;;;;;;;4902160;29;20108;-81
2021/08/26 18:08:36;;;;;;;4.63;2.10;;;;;;;;;;4902299;29;20027;-81
2021/08/26 18:11:01;;;;;;;7.50;2.27;;;;;;;;;;4902132;29;20037;-81
2021/08/26 18:13:29;;;;;;;5.53;2.23;;;;;;;;;;4900359;29;20034;-81
2021/08/26 18:15:54;;;;;;;6.55;2.20;;;;;;;;;;4902455;29;20027;-81
2021/08/26 18:18:19;;;;;;;5.77;2.37;;;;;;;;;;4902084;29;20799;-81
2021/08/26 18:20:45;;;;;;;6.17;2.10;;;;;;;;;;4901955;29;20103;-81
2021/08/26 18:23:10;;;;;;;5.50;2.10;;;;;;;;;;4901638;29;20467;-81
2021/08/26 18:25:36;;;;;;;4.30;2.10;;;;;;;;;;4901800;29;20166;-81
2021/08/26 18:28:01;;;;;;;5.43;2.00;;;;;;;;;;4886537;29;20055;-81
2021/08/26 18:30:26;;;;;;;5.10;1.97;;;;;;;;;;4933245;29;20396;-81
2021/08/26 18:32:52;;;;;;;5.93;1.80;;;;;;;;;;4917462;29;20038;-81
2021/08/26 18:35:17;;;;;;;2.93;1.30;;;;;;;;;;4917078;29;20035;-81
2021/08/26 18:37:43;;;;;;;3.73;1.17;;;;;;;;;;4901516;29;20118;-81
2021/08/26 18:40:08;;;;;;;2.57;0.90;;;;;;;;;;4886216;29;20032;-81
2021/08/26 18:42:34;;;;;;;2.90;1.00;;;;;;;;;;4901647;29;20492;-81
2021/08/26 18:44:59;;;;;;;3.50;1.03;;;;;;;;;;4886364;29;20476;-81
2021/08/26 18:47:25;;;;;;;1.73;0.80;;;;;;;;;;4886294;29;20055;-81
2021/08/26 18:49:51;;;;;;;2.55;0.73;;;;;;;;;;4901597;29;20023;-81
2021/08/26 18:52:17;;;;;;;1.63;0.60;;;;;;;;;;4885747;29;20027;-81
2021/08/26 18:54:44;;;;;;;1.75;0.80;;;;;;;;;;4901946;29;20508;-81
2021/08/26 18:57:09;;;;;;;1.80;0.70;;;;;;;;;;4901930;29;20091;-81
2021/08/26 18:59:34;;;;;;;1.33;0.50;;;;;;;;;;4901811;29;20035;-81
2021/08/26 19:02:00;;;;;;;3.10;0.60;;;;;;;;;;4901290;29;20034;-81
2021/08/26 19:04:26;;;;;;;1.30;0.60;;;;;;;;;;4901497;29;20150;-81
2021/08/26 19:06:52;;;;;;;1.77;0.50;;;;;;;;;;4901879;29;20040;-81
2021/08/26 19:09:17;;;;;;;1.23;0.47;;;;;;;;;;4886027;29;20067;-81
2021/08/26 19:11:42;;;;;;;1.40;0.53;;;;;;;;;;4916746;29;20126;-81
2021/08/26 19:14:11;;;;;;;2.00;0.60;;;;;;;;;;4899661;29;20036;-81
2021/08/26 19:16:36;;;;;;;1.40;0.60;;;;;;;;;;4901559;29;20028;-82
2021/08/26 19:19:02;;;;;;;1.13;0.43;;;;;;;;;;4901220;29;20122;-83
2021/08/26 19:21:27;;;;;;;1.33;0.40;;;;;;;;;;4885353;29;20118;-82
2021/08/26 19:23:53;;;;;;;1.70;0.50;;;;;;;;;;4900981;29;20027;-83
2021/08/26 19:26:18;;;;;;;1.57;0.70;;;;;;;;;;4876033;29;20512;-83
2021/08/26 19:28:43;;;;;;;1.60;0.60;;;;;;;;;;4901000;29;20023;-83
2021/08/26 19:31:09;;;;;;;1.10;0.60;;;;;;;;;;4900724;29;20028;-83
2021/08/26 19:33:34;;;;;;;1.40;0.67;;;;;;;;;;4900854;29;20348;-82
2021/08/26 19:35:59;;;;;;;1.30;0.60;;;;;;;;;;4900820;29;20485;-83
2021/08/26 19:38:25;;;;;;;2.63;0.50;;;;;;;;;;4900869;29;20016;-83
2021/08/26 19:40:50;;;;;;;1.50;0.70;;;;;;;;;;4885224;29;20023;-82
2021/08/26 19:43:16;;;;;;;1.30;0.63;;;;;;;;;;4884942;29;20474;-84
2021/08/26 19:45:41;;;;;;;1.40;0.80;;;;;;;;;;4900984;29;20035;-82
2021/08/26 19:48:06;;;;;;;3.17;0.93;;;;;;;;;;4919001;29;20028;-81
2021/08/26 19:50:33;;;;;;;1.80;0.83;;;;;;;;;;4900649;29;20107;-82
2021/08/26 19:52:58;;;;;;;2.00;0.73;;;;;;;;;;4919364;29;20028;-82
2021/08/26 19:55:23;;;;;;;5.30;0.80;;;;;;;;;;4919405;29;20408;-82
2021/08/26 19:57:49;;;;;;;1.60;0.70;;;;;;;;;;4908193;29;20136;-82
2021/08/26 20:00:14;;;;;;;1.90;0.63;;;;;;;;;;4890916;29;20090;-83
2021/08/26 20:02:40;;;;;;;1.47;0.70;;;;;;;;;;4903870;29;20370;-82
2021/08/26 20:05:06;;;;;;;3.50;0.90;;;;;;;;;;4904331;29;20055;-82
2021/08/26 20:07:32;;;;;;;1.93;0.87;;;;;;;;;;4894977;29;20488;-82
2021/08/26 20:09:57;;;;;;;1.60;0.70;;;;;;;;;;4885209;29;20107;-83
2021/08/26 20:12:22;;;;;;;1.67;0.70;;;;;;;;;;4884917;29;20721;-82
2021/08/26 20:14:48;;;;;;;1.43;0.70;;;;;;;;;;4883198;29;20508;-82
2021/08/26 20:17:14;;;;;;;1.77;0.70;;;;;;;;;;4876037;29;20124;-81
2021/08/26 20:19:39;;;;;;;3.93;0.90;;;;;;;;;;4899820;29;20024;-82
2021/08/26 20:22:04;;;;;;;4.13;0.80;;;;;;;;;;4900417;29;20028;-82
2021/08/26 20:24:30;;;;;;;5.07;0.83;;;;;;;;;;4901005;29;20171;-83
2021/08/26 20:26:56;;;;;;;1.37;0.63;;;;;;;;;;4904019;29;20516;-82
2021/08/26 20:29:21;;;;;;;2.50;0.87;;;;;;;;;;4904265;29;20103;-84
2021/08/26 20:31:46;;;;;;;2.23;0.77;;;;;;;;;;4903986;29;20465;-82
2021/08/26 20:34:12;;;;;;;2.13;0.90;;;;;;;;;;4903955;29;20051;-82
2021/08/26 20:36:37;;;;;;;2.13;0.80;;;;;;;;;;4888363;29;20111;-82
2021/08/26 20:39:03;;;;;;;1.37;0.67;;;;;;;;;;4903875;29;20024;-82
2021/08/26 20:41:29;;;;;;;1.13;0.60;;;;;;;;;;4903899;29;20067;-83
2021/08/26 20:43:54;;;;;;;3.00;1.05;;;;;;;;;;4888236;29;20034;-82
2021/08/26 20:46:20;;;;;;;1.97;0.73;;;;;;;;;;4903626;29;20428;-82
2021/08/26 20:48:45;;;;;;;2.77;0.77;;;;;;;;;;4884780;29;20020;-82
2021/08/26 20:51:11;;;;;;;2.00;0.80;;;;;;;;;;4900452;29;20024;-82